Time;durP1;ratioP1;P1;durP2;ratioP2;P2;SDS_P1;SDS_P2;PMS_P1;PMS_P2;Temp;Humidity;BMP_temperature;BMP_pressure;BME280_temperature;BME280_humidity;BME280_pressure;Samples;Min_cycle;Max_cycle;Signal;HPM_P1;HPM_P2
2023/09/13 00:00:14;;;;;;;20.85;15.98;;;;;;;22.21;85.82;101179.56;5096874;28;20024;-61
2023/09/13 00:02:42;;;;;;;21.63;16.02;;;;;;;22.19;85.68;101168.00;5114957;28;20031;-62
2023/09/13 00:05:08;;;;;;;20.75;15.93;;;;;;;22.11;86.02;101170.00;5115133;28;20069;-61
2023/09/13 00:07:35;;;;;;;19.73;16.23;;;;;;;22.09;86.37;101168.28;5096748;28;20015;-61
2023/09/13 00:10:01;;;;;;;19.60;16.08;;;;;;;22.01;86.29;101168.50;5114710;28;20472;-61
2023/09/13 00:12:26;;;;;;;23.33;16.23;;;;;;;22.03;86.16;101172.06;5115199;28;20055;-61
2023/09/13 00:14:52;;;;;;;23.48;15.85;;;;;;;22.07;85.95;101171.03;5114522;28;20485;-61
2023/09/13 00:17:20;;;;;;;20.15;16.35;;;;;;;22.06;86.28;101169.28;5114710;28;20063;-61
2023/09/13 00:19:46;;;;;;;23.83;16.85;;;;;;;22.12;85.95;101168.19;5115026;28;20053;-60
2023/09/13 00:22:12;;;;;;;19.80;16.20;;;;;;;22.05;86.36;101174.69;5114846;28;20060;-62
2023/09/13 00:24:38;;;;;;;22.10;17.73;;;;;;;22.00;86.88;101174.84;5114751;28;20059;-60
2023/09/13 00:27:03;;;;;;;24.92;17.23;;;;;;;22.02;86.53;101175.69;5114674;28;20055;-61
2023/09/13 00:29:32;;;;;;;26.27;16.77;;;;;;;22.01;86.98;101168.50;5114864;28;20047;-60
2023/09/13 00:31:58;;;;;;;23.17;16.85;;;;;;;22.08;86.94;101177.28;5114697;28;20130;-61
2023/09/13 00:34:23;;;;;;;23.15;16.77;;;;;;;22.03;86.86;101179.25;5114610;28;20469;-60
2023/09/13 00:36:48;;;;;;;24.83;18.25;;;;;;;22.05;86.66;101166.63;5114793;28;20513;-61
2023/09/13 00:39:14;;;;;;;23.33;17.95;;;;;;;21.94;87.15;101175.03;5114351;28;20024;-61
2023/09/13 00:41:39;;;;;;;23.73;17.25;;;;;;;21.90;86.96;101163.50;5113982;28;20500;-60
2023/09/13 00:44:05;;;;;;;22.48;18.08;;;;;;;21.86;87.09;101169.88;5114175;28;20028;-60
2023/09/13 00:46:32;;;;;;;23.23;17.77;;;;;;;21.82;86.87;101170.91;5114459;28;20043;-63
2023/09/13 00:48:58;;;;;;;22.67;18.58;;;;;;;21.73;87.01;101172.06;5114174;28;20051;-62
2023/09/13 00:51:24;;;;;;;22.63;17.83;;;;;;;21.70;87.49;101166.78;5114369;28;20424;-61
2023/09/13 00:53:50;;;;;;;25.42;18.70;;;;;;;21.65;86.90;101162.47;5114155;28;20031;-61
2023/09/13 00:56:16;;;;;;;24.90;19.15;;;;;;;21.53;87.22;101161.03;5114287;28;20114;-62
2023/09/13 00:58:42;;;;;;;25.33;19.52;;;;;;;21.47;87.88;101159.41;5114187;28;20389;-60
2023/09/13 01:01:09;;;;;;;25.70;19.13;;;;;;;21.47;87.00;101161.22;5113900;28;20675;-60
2023/09/13 01:03:34;;;;;;;23.60;19.75;;;;;;;21.45;87.36;101166.63;5096319;28;20036;-61
2023/09/13 01:06:00;;;;;;;28.65;21.02;;;;;;;21.32;87.82;101169.72;5113939;28;20088;-62
2023/09/13 01:08:26;;;;;;;31.00;21.20;;;;;;;21.27;88.09;101162.63;5113837;28;20167;-61
2023/09/13 01:10:51;;;;;;;31.35;20.30;;;;;;;21.24;87.99;101160.06;5113618;28;20502;-60
2023/09/13 01:13:17;;;;;;;27.75;20.65;;;;;;;21.14;88.25;101165.72;5113766;28;20093;-60
2023/09/13 01:16:17;;;;;;;27.27;20.05;;;;;;;21.19;88.28;101155.72;5113574;28;20524;-59
2023/09/13 01:19:04;;;;;;;25.45;18.80;;;;;;;21.18;88.32;101156.63;5059326;28;20075;-60
2023/09/13 01:21:57;;;;;;;29.15;20.90;;;;;;;21.12;89.00;101164.88;5113744;28;20072;-61
2023/09/13 01:24:56;;;;;;;28.55;19.65;;;;;;;21.17;88.49;101171.00;5113738;28;20032;-59
2023/09/13 01:27:59;;;;;;;30.02;21.50;;;;;;;21.09;89.00;101165.84;5113699;28;20047;-61
2023/09/13 01:30:25;;;;;;;27.10;20.38;;;;;;;21.12;89.03;101168.44;5113824;28;20031;-59
2023/09/13 01:32:51;;;;;;;33.40;23.17;;;;;;;21.02;89.79;101178.53;5095083;28;20031;-61
2023/09/13 01:35:17;;;;;;;31.65;22.73;;;;;;;20.93;90.78;101173.44;5113534;28;20408;-60
2023/09/13 01:37:42;;;;;;;35.20;23.88;;;;;;;20.86;90.53;101165.59;5113527;28;20106;-60
2023/09/13 01:40:09;;;;;;;30.40;23.30;;;;;;;20.82;90.71;101170.16;5113187;28;20085;-60
2023/09/13 01:42:37;;;;;;;33.20;23.30;;;;;;;20.83;90.77;101168.34;5113649;28;20047;-60
2023/09/13 01:45:06;;;;;;;34.03;23.38;;;;;;;20.83;90.58;101173.72;5113408;28;20019;-61
2023/09/13 01:47:32;;;;;;;31.13;22.70;;;;;;;20.81;90.86;101176.44;5113528;28;20024;-61
2023/09/13 01:49:59;;;;;;;31.27;23.15;;;;;;;20.82;91.05;101186.28;5113194;28;20036;-63
2023/09/13 01:52:24;;;;;;;32.10;22.92;;;;;;;20.84;90.82;101188.91;5113470;28;20031;-61
2023/09/13 01:54:50;;;;;;;33.72;23.67;;;;;;;20.79;90.83;101190.84;5115758;28;20048;-59
2023/09/13 01:57:15;;;;;;;33.88;22.50;;;;;;;20.82;90.80;101188.97;5117642;28;20509;-61
2023/09/13 01:59:40;;;;;;;35.75;24.33;;;;;;;20.73;90.79;101186.53;5117623;28;20030;-60
2023/09/13 02:02:06;;;;;;;37.47;23.88;;;;;;;20.73;91.14;101195.47;5117316;28;20031;-62
2023/09/13 02:04:33;;;;;;;37.55;24.50;;;;;;;20.74;91.24;101189.16;5117582;28;20032;-60
2023/09/13 02:07:00;;;;;;;35.42;24.55;;;;;;;20.71;91.36;101186.53;5117531;28;20104;-60
2023/09/13 02:09:26;;;;;;;34.90;25.73;;;;;;;20.67;91.41;101200.09;5117257;28;20030;-60
2023/09/13 02:11:51;;;;;;;41.65;27.50;;;;;;;20.59;91.90;101192.22;5117223;28;20028;-60
2023/09/13 02:14:16;;;;;;;39.85;27.40;;;;;;;20.55;92.29;101203.06;5116914;28;20075;-62
2023/09/13 02:16:42;;;;;;;41.42;27.70;;;;;;;20.54;92.71;101204.88;5117005;28;20099;-59
2023/09/13 02:19:07;;;;;;;40.65;26.40;;;;;;;20.60;92.44;101204.75;5117079;28;20027;-59
2023/09/13 02:21:32;;;;;;;38.78;27.92;;;;;;;20.62;92.09;101210.06;5117384;28;20500;-61
2023/09/13 02:23:58;;;;;;;41.28;28.25;;;;;;;20.60;91.93;101203.84;5116989;28;20469;-60
2023/09/13 02:26:24;;;;;;;41.10;28.25;;;;;;;20.59;92.17;101213.69;5116991;28;20071;-61
2023/09/13 02:28:50;;;;;;;42.45;28.38;;;;;;;20.60;92.09;101217.25;5116909;28;20051;-61
2023/09/13 02:31:22;;;;;;;41.83;29.13;;;;;;;20.62;92.13;101215.44;5116904;28;20473;-59
2023/09/13 02:33:48;;;;;;;50.75;30.52;;;;;;;20.61;91.86;101211.00;5116996;28;20389;-60
2023/09/13 02:36:13;;;;;;;45.33;31.75;;;;;;;20.49;92.09;101210.38;5116864;28;20023;-61
2023/09/13 02:38:39;;;;;;;50.25;31.63;;;;;;;20.48;92.63;101218.47;5116951;28;20492;-61
2023/09/13 02:41:04;;;;;;;49.47;33.20;;;;;;;20.38;93.03;101217.75;5116524;28;20107;-60
2023/09/13 02:43:29;;;;;;;49.35;32.45;;;;;;;20.25;94.00;101221.66;5116751;28;20035;-61
2023/09/13 02:45:55;;;;;;;43.42;30.23;;;;;;;20.26;93.97;101207.34;5098414;28;20434;-60
2023/09/13 02:48:20;;;;;;;48.13;32.15;;;;;;;20.24;93.97;101218.09;5116618;28;20028;-61
2023/09/13 02:50:45;;;;;;;47.20;31.48;;;;;;;20.26;94.32;101221.63;5116802;28;20050;-62
2023/09/13 02:53:11;;;;;;;51.90;33.78;;;;;;;20.25;94.91;101219.84;5116447;28;20020;-61
2023/09/13 02:55:36;;;;;;;55.35;34.95;;;;;;;20.27;94.77;101215.34;5116678;28;20081;-60
2023/09/13 02:58:02;;;;;;;56.72;35.58;;;;;;;20.26;94.95;101216.28;5116439;28;20493;-61
2023/09/13 03:00:27;;;;;;;55.28;36.75;;;;;;;20.17;95.51;101215.56;5116233;28;20031;-60
2023/09/13 03:02:52;;;;;;;56.25;35.75;;;;;;;20.18;95.99;101228.09;5116220;28;20063;-61
2023/09/13 03:05:18;;;;;;;60.38;36.72;;;;;;;20.21;96.11;101230.69;5115273;28;20500;-61
2023/09/13 03:07:43;;;;;;;56.33;34.63;;;;;;;20.26;96.22;101239.53;5116176;28;20073;-62
2023/09/13 03:10:09;;;;;;;59.95;37.70;;;;;;;20.26;96.09;101235.06;5115955;28;20503;-61
2023/09/13 03:12:34;;;;;;;59.00;37.67;;;;;;;20.30;95.87;101241.25;5116010;28;20023;-61
2023/09/13 03:15:00;;;;;;;54.13;35.60;;;;;;;20.30;95.88;101226.91;5116004;28;20063;-59
2023/09/13 03:17:25;;;;;;;60.08;37.20;;;;;;;20.30;95.98;101229.59;5115992;28;20026;-61
2023/09/13 03:19:50;;;;;;;57.78;35.60;;;;;;;20.33;95.74;101234.91;5115966;28;20030;-62
2023/09/13 03:22:16;;;;;;;55.40;36.58;;;;;;;20.31;96.15;101234.06;5116019;28;20031;-61
2023/09/13 03:24:41;;;;;;;57.35;35.72;;;;;;;20.36;95.99;101237.53;5115947;28;20027;-61
2023/09/13 03:27:08;;;;;;;60.22;35.72;;;;;;;20.34;96.12;101232.19;5116099;28;20035;-60
2023/09/13 03:29:33;;;;;;;55.13;35.75;;;;;;;20.35;95.76;101238.44;5115791;28;20564;-60
2023/09/13 03:31:58;;;;;;;57.70;36.65;;;;;;;20.30;96.18;101237.63;5115608;28;20111;-60
2023/09/13 03:34:24;;;;;;;53.13;34.58;;;;;;;20.25;96.50;101233.25;5115741;28;20054;-60
2023/09/13 03:36:49;;;;;;;55.33;34.22;;;;;;;20.19;96.63;101230.72;5115711;28;20024;-61
2023/09/13 03:39:14;;;;;;;57.38;33.70;;;;;;;20.15;96.57;101245.13;5115539;28;20515;-60
2023/09/13 03:41:40;;;;;;;55.47;33.58;;;;;;;20.15;96.15;101234.41;5115536;28;20068;-60
2023/09/13 03:44:05;;;;;;;48.72;33.33;;;;;;;20.12;96.88;101250.56;5115715;28;20028;-61
2023/09/13 03:46:31;;;;;;;48.20;30.50;;;;;;;20.20;96.70;101255.75;5115726;28;20435;-61
2023/09/13 03:48:56;;;;;;;51.40;32.10;;;;;;;20.19;96.77;101246.84;5115388;28;20094;-61
2023/09/13 03:51:22;;;;;;;50.83;33.10;;;;;;;20.25;96.63;101253.84;5115321;28;20481;-63
2023/09/13 03:53:47;;;;;;;49.60;32.72;;;;;;;20.23;96.53;101243.16;5115461;28;20058;-61
2023/09/13 03:56:13;;;;;;;50.90;31.90;;;;;;;20.22;96.50;101249.47;5115247;28;20465;-60
2023/09/13 03:58:38;;;;;;;50.83;31.92;;;;;;;20.15;97.17;101246.94;5115493;28;20381;-63
2023/09/13 04:01:04;;;;;;;54.08;31.45;;;;;;;20.17;97.25;101247.78;5115365;28;20114;-62
2023/09/13 04:03:30;;;;;;;56.33;33.90;;;;;;;20.10;97.37;101244.38;5115274;28;20487;-62
2023/09/13 04:05:55;;;;;;;48.78;30.38;;;;;;;20.18;97.00;101234.34;5115186;28;20035;-61
2023/09/13 04:08:21;;;;;;;55.08;33.60;;;;;;;20.15;97.11;101242.44;5114979;28;20032;-61
2023/09/13 04:10:46;;;;;;;55.00;32.67;;;;;;;20.15;96.53;101239.78;5115049;28;20039;-61
2023/09/13 04:13:11;;;;;;;53.95;33.58;;;;;;;20.13;96.69;101238.94;5115138;28;20042;-62
2023/09/13 04:15:38;;;;;;;58.05;35.63;;;;;;;20.06;97.15;101245.34;5114853;28;20096;-61
2023/09/13 04:18:04;;;;;;;56.05;35.88;;;;;;;20.08;98.00;101247.97;5114442;28;20027;-62
2023/09/13 04:20:30;;;;;;;56.00;34.22;;;;;;;20.08;97.23;101240.81;5115297;28;20027;-60
2023/09/13 04:22:55;;;;;;;53.13;32.92;;;;;;;20.15;97.22;101245.13;5114822;28;20031;-60
2023/09/13 04:25:21;;;;;;;58.55;34.42;;;;;;;20.10;97.19;101241.69;5115015;28;20469;-61
2023/09/13 04:27:47;;;;;;;52.35;34.15;;;;;;;20.04;98.08;101251.66;5114680;28;20100;-62
2023/09/13 04:30:14;;;;;;;58.67;36.88;;;;;;;20.04;98.23;101254.34;5114684;28;20027;-61
2023/09/13 04:32:40;;;;;;;61.40;36.83;;;;;;;20.05;98.07;101253.44;5114361;28;20031;-60
2023/09/13 04:35:07;;;;;;;60.03;35.78;;;;;;;20.06;97.48;101252.50;5114539;28;20049;-61
2023/09/13 04:37:33;;;;;;;52.00;34.25;;;;;;;20.05;97.58;101253.44;5114459;28;20043;-60
2023/09/13 04:39:58;;;;;;;58.67;35.45;;;;;;;20.03;97.54;101250.78;5114229;28;20024;-61
2023/09/13 04:42:24;;;;;;;56.67;36.17;;;;;;;19.99;98.01;101252.63;5114655;28;20062;-62
2023/09/13 04:44:49;;;;;;;60.17;37.00;;;;;;;19.92;98.10;101255.50;5114279;28;20382;-59
2023/09/13 04:47:14;;;;;;;56.75;35.03;;;;;;;19.84;99.01;101257.47;5114162;28;20031;-61
2023/09/13 04:49:40;;;;;;;60.20;35.58;;;;;;;19.81;99.38;101255.72;5114077;28;20055;-61
2023/09/13 04:52:07;;;;;;;54.33;35.28;;;;;;;19.75;99.53;101254.06;5114098;28;20028;-61
2023/09/13 04:54:33;;;;;;;53.30;32.67;;;;;;;19.81;99.34;101246.78;5096207;28;20032;-62
2023/09/13 04:56:58;;;;;;;59.25;35.45;;;;;;;19.80;98.83;101253.97;5113994;28;20027;-62
2023/09/13 04:59:39;;;;;;;59.15;35.40;;;;;;;19.77;98.78;101252.22;5113950;28;20059;-60
2023/09/13 05:02:04;;;;;;;57.13;34.22;;;;;;;19.72;98.92;101251.41;5113987;28;20052;-60
2023/09/13 05:04:30;;;;;;;55.83;32.92;;;;;;;19.72;98.78;101261.28;5113946;28;20483;-60
2023/09/13 05:06:56;;;;;;;57.42;35.20;;;;;;;19.68;98.87;101264.94;5095815;28;20024;-59
2023/09/13 05:09:21;;;;;;;57.47;33.97;;;;;;;19.71;98.83;101276.47;5114243;28;20026;-60
2023/09/13 05:11:47;;;;;;;58.22;33.85;;;;;;;19.73;98.61;101276.44;5113544;28;20520;-61
2023/09/13 05:14:13;;;;;;;58.00;34.22;;;;;;;19.73;99.14;101273.75;5113452;28;20079;-60
2023/09/13 05:16:39;;;;;;;48.45;30.42;;;;;;;19.77;98.89;101270.09;5113410;28;20032;-61
2023/09/13 05:19:05;;;;;;;56.35;34.55;;;;;;;19.72;98.77;101272.88;5113558;28;20035;-63
2023/09/13 05:21:30;;;;;;;52.28;33.38;;;;;;;19.70;98.89;101272.03;5113341;28;20027;-60
2023/09/13 05:23:56;;;;;;;59.50;32.63;;;;;;;19.70;99.35;101272.03;5113232;28;20023;-61
2023/09/13 05:26:21;;;;;;;53.35;33.85;;;;;;;19.64;99.16;101273.94;5113058;28;20039;-62
2023/09/13 05:28:46;;;;;;;57.40;32.75;;;;;;;19.69;99.22;101275.59;5112322;28;20036;-61
2023/09/13 05:31:12;;;;;;;51.78;33.50;;;;;;;19.64;99.59;101276.63;5112958;28;20114;-61
2023/09/13 05:33:37;;;;;;;51.88;32.38;;;;;;;19.64;99.46;101269.47;5113031;28;20477;-61
2023/09/13 05:36:10;;;;;;;50.40;32.17;;;;;;;19.64;99.69;101274.81;5113035;28;20078;-62
2023/09/13 05:38:36;;;;;;;44.65;29.10;;;;;;;19.68;98.96;101275.66;5112796;28;20523;-61
2023/09/13 05:41:07;;;;;;;53.97;33.17;;;;;;;19.66;99.28;101282.84;5112867;28;20020;-61
2023/09/13 05:43:36;;;;;;;52.45;32.03;;;;;;;19.65;98.71;101281.94;5112876;28;20116;-61
2023/09/13 05:46:01;;;;;;;53.45;31.58;;;;;;;19.67;98.93;101290.84;5112989;28;20207;-60
2023/09/13 05:48:27;;;;;;;43.03;29.88;;;;;;;19.67;98.76;101292.66;5112869;28;20058;-63
2023/09/13 05:50:52;;;;;;;47.35;31.10;;;;;;;19.60;99.05;101293.66;5113267;28;20028;-61
2023/09/13 05:53:19;;;;;;;44.60;31.38;;;;;;;19.62;98.91;101299.91;5112754;28;20024;-61
2023/09/13 05:55:45;;;;;;;53.85;32.30;;;;;;;19.58;99.63;101300.84;5112771;28;20034;-62
2023/09/13 05:58:11;;;;;;;46.55;30.30;;;;;;;19.60;99.46;101302.56;5112726;28;20026;-61
2023/09/13 06:00:36;;;;;;;50.28;31.67;;;;;;;19.58;99.85;101300.84;5112711;28;20020;-61
2023/09/13 06:03:02;;;;;;;45.33;29.35;;;;;;;19.65;99.92;101308.75;5112812;28;20159;-61
2023/09/13 06:05:27;;;;;;;48.05;31.40;;;;;;;19.64;99.51;101304.31;5112718;28;20030;-60
2023/09/13 06:07:53;;;;;;;52.97;30.60;;;;;;;19.64;100.00;101314.16;5094609;28;20168;-64
2023/09/13 06:10:18;;;;;;;48.65;30.70;;;;;;;19.67;100.00;101319.47;5077381;28;20032;-61
2023/09/13 06:12:45;;;;;;;47.30;29.90;;;;;;;19.62;99.70;101311.53;5112932;28;20444;-61
2023/09/13 06:15:10;;;;;;;49.83;31.63;;;;;;;19.58;100.00;101327.66;5112358;28;20097;-60
2023/09/13 06:17:39;;;;;;;43.80;30.27;;;;;;;19.64;99.81;101322.19;5112561;28;20475;-61
2023/09/13 06:20:05;;;;;;;49.20;30.13;;;;;;;19.57;100.00;101326.78;5112676;28;20016;-61
2023/09/13 06:22:32;;;;;;;47.42;28.90;;;;;;;19.57;100.00;101331.22;5112520;28;20220;-60
2023/09/13 06:24:58;;;;;;;40.67;26.60;;;;;;;19.64;100.00;101339.16;5112870;28;20365;-61
2023/09/13 06:27:24;;;;;;;41.05;28.60;;;;;;;19.65;99.82;101348.09;5112523;28;20473;-61
2023/09/13 06:29:49;;;;;;;42.25;26.63;;;;;;;19.70;100.00;101347.13;5112629;28;20152;-61
2023/09/13 06:32:15;;;;;;;43.50;27.77;;;;;;;19.68;99.76;101353.41;5112325;28;20503;-60
2023/09/13 06:34:40;;;;;;;44.13;28.15;;;;;;;19.69;99.77;101355.16;5112572;28;20028;-61
2023/09/13 06:37:06;;;;;;;37.28;26.23;;;;;;;19.68;99.81;101361.44;5112449;28;20023;-61
2023/09/13 06:39:34;;;;;;;40.67;26.55;;;;;;;19.71;99.81;101359.59;5112478;28;20043;-60
2023/09/13 06:42:00;;;;;;;39.92;26.48;;;;;;;19.65;99.57;101364.19;5116399;28;20035;-61
2023/09/13 06:44:25;;;;;;;38.78;25.67;;;;;;;19.67;99.61;101368.63;5116633;28;20076;-62
2023/09/13 06:46:50;;;;;;;37.45;25.30;;;;;;;19.65;99.92;101373.09;5097839;28;20020;-61
2023/09/13 06:49:16;;;;;;;41.67;25.85;;;;;;;19.66;99.98;101371.34;5116128;28;20073;-61
2023/09/13 06:51:41;;;;;;;41.50;25.77;;;;;;;19.68;100.00;101366.81;5116096;28;20020;-60
2023/09/13 06:54:06;;;;;;;38.28;25.83;;;;;;;19.72;99.99;101372.09;5097824;28;20059;-61
2023/09/13 06:56:33;;;;;;;39.28;24.15;;;;;;;19.74;100.00;101375.66;5097834;28;20096;-62
2023/09/13 06:59:00;;;;;;;39.40;25.77;;;;;;;19.79;100.00;101374.69;5115945;28;20477;-61
2023/09/13 07:01:25;;;;;;;34.35;24.05;;;;;;;19.82;99.66;101378.16;5116135;28;20023;-61
2023/09/13 07:03:51;;;;;;;37.40;24.08;;;;;;;19.85;99.61;101378.09;5115966;28;20084;-61
2023/09/13 07:06:16;;;;;;;37.30;22.80;;;;;;;19.99;99.52;101378.72;5115920;28;20028;-60
2023/09/13 07:08:42;;;;;;;33.17;23.33;;;;;;;20.01;99.17;101389.44;5115631;28;20419;-62
2023/09/13 07:11:07;;;;;;;34.20;23.48;;;;;;;20.04;99.67;101381.31;5115560;28;20035;-60
2023/09/13 07:13:33;;;;;;;32.67;21.65;;;;;;;20.02;99.01;101375.97;5115622;28;20031;-61
2023/09/13 07:15:58;;;;;;;38.67;22.77;;;;;;;20.12;99.58;101389.19;5115509;28;20086;-59
2023/09/13 07:18:24;;;;;;;36.35;23.02;;;;;;;20.18;98.92;101389.09;5115444;28;20542;-61
2023/09/13 07:20:49;;;;;;;33.03;21.98;;;;;;;20.20;99.00;101376.53;5115595;28;20047;-61
2023/09/13 07:23:16;;;;;;;39.90;23.20;;;;;;;20.21;99.48;101386.34;5115486;28;20048;-61
2023/09/13 07:25:41;;;;;;;35.38;22.88;;;;;;;20.25;98.74;101390.72;5115301;28;20114;-61
2023/09/13 07:28:08;;;;;;;33.25;22.48;;;;;;;20.33;99.13;101393.25;5115508;28;20107;-61
2023/09/13 07:30:33;;;;;;;38.42;23.42;;;;;;;20.32;98.76;101395.06;5115314;28;20053;-62
2023/09/13 07:33:00;;;;;;;36.17;22.90;;;;;;;20.35;98.48;101396.81;5115203;28;20024;-61
2023/09/13 07:35:25;;;;;;;36.65;23.42;;;;;;;20.35;98.78;101392.31;5115321;28;20027;-62
2023/09/13 07:37:51;;;;;;;35.63;24.17;;;;;;;20.36;98.34;101404.81;5115566;28;20157;-60
2023/09/13 07:40:16;;;;;;;36.40;24.63;;;;;;;20.40;99.19;101402.97;5115219;28;20020;-60
2023/09/13 07:42:42;;;;;;;34.67;22.35;;;;;;;20.39;98.41;101403.88;5115188;28;20115;-61
2023/09/13 07:45:08;;;;;;;35.22;23.15;;;;;;;20.33;98.59;101420.97;5115349;28;20055;-61
2023/09/13 07:47:33;;;;;;;42.30;23.83;;;;;;;20.26;99.84;101436.34;5115121;28;20092;-60
2023/09/13 07:49:59;;;;;;;29.60;16.80;;;;;;;20.05;99.68;101442.13;5115206;28;20031;-61
2023/09/13 07:52:25;;;;;;;18.73;11.07;;;;;;;19.87;98.63;101438.00;5114557;28;20047;-61
2023/09/13 07:54:51;;;;;;;16.27;7.72;;;;;;;19.70;97.95;101443.66;5115088;28;20461;-60
2023/09/13 07:57:17;;;;;;;9.38;5.30;;;;;;;19.55;97.63;101453.69;5115315;28;20381;-61
2023/09/13 07:59:42;;;;;;;8.75;4.20;;;;;;;19.40;97.59;101453.06;5114983;28;20477;-61
2023/09/13 08:02:08;;;;;;;4.47;3.17;;;;;;;19.24;97.28;101451.53;5114886;28;20030;-61
2023/09/13 08:04:33;;;;;;;4.68;2.95;;;;;;;19.08;97.17;101469.59;5114943;28;20382;-60
2023/09/13 08:06:59;;;;;;;5.30;2.90;;;;;;;19.02;97.46;101470.59;5114826;28;20477;-60
2023/09/13 08:09:25;;;;;;;4.53;2.67;;;;;;;19.00;98.81;101472.38;5114736;28;20039;-61
2023/09/13 08:11:52;;;;;;;3.35;2.40;;;;;;;19.04;98.74;101488.44;5114430;28;20024;-61
2023/09/13 08:14:17;;;;;;;4.55;2.40;;;;;;;18.99;98.30;101492.06;5114658;28;20087;-62
2023/09/13 08:16:43;;;;;;;5.25;2.10;;;;;;;19.08;98.48;101491.03;5096462;28;20114;-61
2023/09/13 08:19:08;;;;;;;3.85;1.90;;;;;;;19.05;96.31;101499.09;5114521;28;20449;-61
2023/09/13 08:21:34;;;;;;;4.30;1.90;;;;;;;19.09;95.27;101500.84;5114603;28;20149;-61
2023/09/13 08:23:59;;;;;;;2.80;1.90;;;;;;;19.04;94.35;101505.38;5096150;28;20184;-60
2023/09/13 08:26:25;;;;;;;2.05;1.70;;;;;;;18.98;94.73;101516.19;5114456;28;20127;-61
2023/09/13 08:28:51;;;;;;;2.42;1.58;;;;;;;18.97;93.85;101525.09;5114408;28;20362;-61
2023/09/13 08:31:17;;;;;;;2.17;1.60;;;;;;;18.89;93.21;101519.00;5114305;28;20047;-61
2023/09/13 08:33:43;;;;;;;4.68;1.77;;;;;;;18.87;92.94;101526.16;5114422;28;20100;-61
2023/09/13 08:36:09;;;;;;;2.15;1.70;;;;;;;18.80;92.53;101529.78;5114486;28;20031;-60
2023/09/13 08:38:34;;;;;;;3.53;1.70;;;;;;;18.76;92.45;101535.22;5114176;28;20111;-60
2023/09/13 08:40:59;;;;;;;3.53;1.70;;;;;;;18.78;92.81;101535.19;5113946;28;20031;-61
2023/09/13 08:53:40;;;;;;;1.85;1.55;;;;;;;19.01;91.34;101565.25;5114251;27;20031;-60
2023/09/13 08:56:06;;;;;;;2.53;1.70;;;;;;;19.26;90.39;101578.31;5113913;28;20373;-62
2023/09/13 08:58:32;;;;;;;4.50;1.70;;;;;;;19.38;89.57;101579.94;5113686;28;20034;-60
2023/09/13 09:01:02;;;;;;;2.35;1.60;;;;;;;19.44;89.84;101595.94;5113946;28;20362;-61
2023/09/13 09:03:28;;;;;;;2.83;1.70;;;;;;;19.47;86.91;101598.56;5113497;28;20538;-60
2023/09/13 09:05:54;;;;;;;4.43;1.73;;;;;;;19.42;87.90;101605.78;5113654;28;20059;-61
2023/09/13 09:08:22;;;;;;;2.90;1.70;;;;;;;19.36;87.97;101606.78;5113890;28;20024;-61
2023/09/13 09:10:51;;;;;;;3.30;1.70;;;;;;;19.30;87.47;101616.69;5113281;28;20038;-61
2023/09/13 09:13:21;;;;;;;2.92;1.80;;;;;;;19.34;88.17;101616.63;5113499;28;20126;-60
2023/09/13 09:15:47;;;;;;;2.67;1.80;;;;;;;19.26;86.53;101615.81;5095104;28;20123;-61
2023/09/13 09:18:13;;;;;;;2.35;1.70;;;;;;;19.19;87.39;101615.03;5113258;28;20058;-62
2023/09/13 09:20:39;;;;;;;3.45;2.00;;;;;;;19.09;86.70;101617.81;5113518;28;20486;-60
2023/09/13 09:23:08;;;;;;;3.90;2.17;;;;;;;19.15;85.90;101628.50;5113656;28;20020;-61
2023/09/13 09:25:38;;;;;;;3.13;1.95;;;;;;;19.16;86.37;101632.94;5095396;28;20035;-60
2023/09/13 09:28:05;;;;;;;3.20;1.80;;;;;;;19.19;85.77;101638.25;5112876;28;20465;-61
2023/09/13 09:30:33;;;;;;;14.27;1.92;;;;;;;19.20;85.71;101637.34;5113012;28;20059;-61
2023/09/13 09:33:03;;;;;;;7.00;1.80;;;;;;;19.19;85.11;101651.66;5113075;28;20088;-61
2023/09/13 09:35:29;;;;;;;3.10;1.88;;;;;;;19.36;85.61;101648.78;5113326;28;20023;-61
2023/09/13 09:37:54;;;;;;;3.65;1.92;;;;;;;19.47;86.64;101652.19;5113038;28;20031;-61
2023/09/13 09:40:20;;;;;;;3.55;1.90;;;;;;;19.54;85.42;101648.53;5112793;28;20110;-60
2023/09/13 09:42:52;;;;;;;4.57;1.80;;;;;;;19.55;86.02;101649.41;5112857;28;20019;-61
2023/09/13 09:45:19;;;;;;;4.43;1.80;;;;;;;19.61;85.27;101657.38;5113205;28;20068;-61
2023/09/13 09:47:44;;;;;;;2.80;1.90;;;;;;;19.58;83.87;101660.09;5112657;28;20024;-62
2023/09/13 09:50:11;;;;;;;4.60;1.80;;;;;;;19.54;82.56;101656.56;5094619;28;20023;-61
2023/09/13 09:52:36;;;;;;;3.60;1.90;;;;;;;19.56;84.37;101656.53;5077688;28;20027;-61
2023/09/13 09:55:04;;;;;;;3.05;1.65;;;;;;;19.62;84.17;101657.38;5112618;28;20030;-61
2023/09/13 09:57:29;;;;;;;5.00;1.73;;;;;;;19.65;84.67;101660.00;5094628;28;20088;-60
2023/09/13 09:59:58;;;;;;;4.22;1.80;;;;;;;19.74;82.72;101659.00;5112663;28;20469;-61
2023/09/13 10:02:27;;;;;;;2.35;1.70;;;;;;;19.92;84.13;101657.88;5112626;28;20034;-62
2023/09/13 10:04:53;;;;;;;5.05;1.60;;;;;;;20.16;80.37;101667.31;5112843;28;20024;-62
2023/09/13 10:07:18;;;;;;;3.33;1.70;;;;;;;20.37;82.19;101661.59;5112790;28;20024;-62
2023/09/13 10:09:45;;;;;;;2.63;1.55;;;;;;;20.49;79.28;101672.16;5112902;28;20469;-61
2023/09/13 10:12:12;;;;;;;2.35;1.63;;;;;;;20.73;79.35;101673.53;5094245;28;20030;-63
2023/09/13 10:14:42;;;;;;;3.50;1.73;;;;;;;20.72;77.43;101670.88;5112642;28;20082;-62
2023/09/13 10:17:09;;;;;;;3.55;1.70;;;;;;;20.90;77.50;101678.59;5117003;28;20020;-62
2023/09/13 10:19:35;;;;;;;2.72;1.73;;;;;;;21.19;76.85;101678.00;5116615;28;20498;-61
2023/09/13 10:22:02;;;;;;;2.70;1.80;;;;;;;21.54;74.16;101671.09;5116660;28;20043;-62
2023/09/13 10:25:03;;;;;;;3.03;1.80;;;;;;;22.05;74.33;101684.25;5116580;28;20042;-61
2023/09/13 10:27:33;;;;;;;3.90;1.85;;;;;;;22.22;68.17;101689.28;5062904;28;20039;-61
2023/09/13 10:30:06;;;;;;;2.80;1.85;;;;;;;22.32;67.81;101680.06;5116441;28;20055;-61
2023/09/13 10:32:38;;;;;;;3.75;2.10;;;;;;;22.32;68.42;101687.25;5116262;28;20445;-61
2023/09/13 10:35:03;;;;;;;;;;;;;;;22.62;71.55;101691.88;5116997;28;20046;-63
2023/09/13 10:37:39;;;;;;;3.30;1.90;;;;;;;22.79;69.19;101707.59;5115082;28;19912;-62
2023/09/13 10:40:33;;;;;;;2.90;1.77;;;;;;;22.95;69.09;101709.00;5116264;28;20118;-62
2023/09/13 10:43:00;;;;;;;3.70;1.80;;;;;;;23.11;69.55;101708.56;5116422;28;20099;-61
2023/09/13 10:45:25;;;;;;;3.45;1.88;;;;;;;23.11;67.29;101704.06;5116178;28;20362;-62
2023/09/13 10:47:52;;;;;;;3.38;1.75;;;;;;;23.27;66.11;101718.00;5097588;28;20039;-62
2023/09/13 10:50:18;;;;;;;2.50;1.63;;;;;;;23.67;69.28;101719.56;5116393;28;20052;-62
2023/09/13 10:52:44;;;;;;;3.10;1.90;;;;;;;23.61;64.58;101712.53;5115858;28;20425;-62
2023/09/13 10:55:14;;;;;;;3.67;1.80;;;;;;;23.75;65.57;101717.53;5116394;28;20047;-60
2023/09/13 10:57:41;;;;;;;4.05;1.95;;;;;;;23.58;64.67;101722.53;5116036;28;20016;-61
2023/09/13 11:00:09;;;;;;;3.05;1.75;;;;;;;23.38;63.44;101721.31;5098103;28;20023;-62
2023/09/13 11:02:35;;;;;;;2.40;1.58;;;;;;;23.13;63.44;101718.41;5115921;28;20070;-62
2023/09/13 11:05:00;;;;;;;4.40;1.95;;;;;;;22.96;64.58;101726.06;5115864;28;20032;-62
2023/09/13 11:07:26;;;;;;;3.03;1.73;;;;;;;22.86;63.92;101736.16;5115129;28;20084;-62
2023/09/13 11:10:02;;;;;;;2.97;1.80;;;;;;;22.80;67.07;101732.75;5115889;28;20039;-60
2023/09/13 11:12:27;;;;;;;1.95;1.50;;;;;;;22.70;65.44;101735.69;5115761;28;20023;-61
2023/09/13 11:14:54;;;;;;;3.15;2.00;;;;;;;22.87;65.01;101737.03;5115204;28;20130;-62
2023/09/13 11:17:39;;;;;;;3.72;2.00;;;;;;;22.98;65.12;101738.56;5115459;28;20023;-62
2023/09/13 11:20:38;;;;;;;3.95;1.90;;;;;;;22.92;64.30;101746.81;5115507;28;20484;-61
2023/09/13 11:23:16;;;;;;;4.13;1.80;;;;;;;22.77;64.48;101751.66;5115768;28;20028;-60